Time;durP1;ratioP1;P1;durP2;ratioP2;P2;SDS_P1;SDS_P2;PMS_P1;PMS_P2;Temp;Humidity;BMP_temperature;BMP_pressure;BME280_temperature;BME280_humidity;BME280_pressure;Samples;Min_cycle;Max_cycle;Signal;HPM_P1;HPM_P2
2021/08/24 00:00:21;;;;;;;12.52;8.00;;;;;;;16.59;64.04;93231.38;5106172;28;20055;-85
2021/08/24 00:02:47;;;;;;;9.85;6.78;;;;;;;16.62;63.80;93227.50;5106335;28;20064;-84
2021/08/24 00:05:20;;;;;;;10.93;7.60;;;;;;;15.90;64.16;93122.94;5106135;28;20058;-85
2021/08/24 00:07:47;;;;;;;9.13;7.50;;;;;;;16.40;64.46;93218.75;5105826;28;20044;-83
2021/08/24 00:10:14;;;;;;;9.32;7.32;;;;;;;16.30;64.76;93224.63;5106091;28;20061;-82
2021/08/24 00:12:41;;;;;;;7.90;6.78;;;;;;;16.22;64.91;93217.31;5105770;28;20044;-82
2021/08/24 00:15:12;;;;;;;10.85;7.70;;;;;;;16.19;65.86;93222.97;5106129;28;20390;-83
2021/08/24 00:17:38;;;;;;;9.10;7.43;;;;;;;16.21;65.68;93231.28;5106361;28;20078;-83
2021/08/24 00:20:06;;;;;;;9.57;7.30;;;;;;;16.13;65.67;93216.16;5106020;28;20412;-82
2021/08/24 00:22:33;;;;;;;9.88;8.02;;;;;;;15.85;65.48;93173.88;5106037;28;20039;-83
2021/08/24 00:25:00;;;;;;;8.63;7.45;;;;;;;16.19;65.21;93214.41;5105700;28;20052;-82
2021/08/24 00:27:27;;;;;;;10.40;7.88;;;;;;;16.16;66.60;93218.28;5105809;28;20047;-83
2021/08/24 00:29:54;;;;;;;8.52;7.63;;;;;;;16.10;66.90;93217.44;5106040;28;20047;-82
2021/08/24 00:32:22;;;;;;;14.23;7.93;;;;;;;16.15;66.42;93221.88;5107416;28;20828;-82
2021/08/24 00:34:49;;;;;;;9.10;7.35;;;;;;;16.02;66.71;93210.88;5110188;28;20051;-82
2021/08/24 00:37:16;;;;;;;15.90;7.88;;;;;;;16.10;67.19;93222.63;5109983;28;20087;-81
2021/08/24 00:39:42;;;;;;;8.90;8.00;;;;;;;16.06;67.20;93225.94;5110243;28;20048;-82
2021/08/24 00:42:11;;;;;;;9.77;7.75;;;;;;;15.97;67.08;93216.00;5110315;28;20389;-82
2021/08/24 00:44:38;;;;;;;13.13;7.70;;;;;;;15.77;67.19;93188.03;5109968;27;20043;-82
2021/08/24 00:47:08;;;;;;;10.25;7.63;;;;;;;16.09;66.84;93221.06;5109799;28;20044;-82
2021/08/24 00:49:36;;;;;;;9.68;7.55;;;;;;;16.06;67.04;93220.75;5110144;28;20666;-82
2021/08/24 00:52:09;;;;;;;10.68;8.40;;;;;;;15.98;67.58;93217.56;5109968;28;20048;-82
2021/08/24 00:54:38;;;;;;;8.48;7.45;;;;;;;15.98;67.45;93216.78;5109592;28;20492;-82
2021/08/24 00:57:10;;;;;;;10.80;7.93;;;;;;;15.97;67.36;93218.59;5109839;28;20109;-82
2021/08/24 00:59:37;;;;;;;9.90;8.70;;;;;;;16.00;67.17;93207.75;5109639;28;20051;-82
2021/08/24 01:02:05;;;;;;;10.55;7.72;;;;;;;15.99;67.08;93213.97;5109513;28;20496;-82
2021/08/24 01:04:32;;;;;;;8.95;7.30;;;;;;;15.86;67.17;93194.38;5109542;28;20484;-83
2021/08/24 01:07:05;;;;;;;9.07;7.57;;;;;;;15.90;67.56;93215.38;5109472;28;20054;-83
2021/08/24 01:09:42;;;;;;;10.35;7.55;;;;;;;15.88;67.63;93220.03;5109898;28;20043;-83
2021/08/24 01:12:19;;;;;;;11.05;7.68;;;;;;;15.70;67.97;93198.56;5109927;28;20130;-83
2021/08/24 01:14:56;;;;;;;10.18;7.20;;;;;;;15.76;68.04;93215.75;5109731;28;20051;-83
2021/08/24 01:17:28;;;;;;;9.18;7.65;;;;;;;15.69;68.25;93214.38;5109588;28;20055;-82
2021/08/24 01:20:19;;;;;;;10.57;7.72;;;;;;;15.32;68.41;93176.91;5109751;28;20082;-82
2021/08/24 01:23:26;;;;;;;10.55;8.30;;;;;;;15.30;69.18;93195.25;5109817;28;20044;-81
2021/08/24 01:26:00;;;;;;;8.45;7.13;;;;;;;15.35;69.62;93205.69;5109564;28;20092;-81
2021/08/24 01:28:34;;;;;;;10.85;8.00;;;;;;;15.34;70.11;93209.28;5109736;28;20759;-81
2021/08/24 01:31:23;;;;;;;10.20;7.82;;;;;;;15.32;69.74;93195.03;5109211;28;20047;-81
2021/08/24 01:34:02;;;;;;;11.48;8.15;;;;;;;15.46;69.40;93208.41;5109310;28;20416;-80
2021/08/24 01:36:34;;;;;;;10.77;8.05;;;;;;;15.52;69.20;93202.25;5109317;28;20043;-81
2021/08/24 01:39:06;;;;;;;12.52;7.35;;;;;;;15.55;68.88;93204.34;5109067;28;20109;-80
2021/08/24 01:41:49;;;;;;;9.57;8.02;;;;;;;15.46;69.25;93203.22;5109730;28;20047;-81
2021/08/24 01:44:18;;;;;;;8.90;7.53;;;;;;;15.31;69.90;93216.72;5110191;28;20047;-81
2021/08/24 01:46:49;;;;;;;11.57;8.77;;;;;;;15.29;70.27;93214.41;5110025;28;20044;-80
2021/08/24 01:49:18;;;;;;;9.77;7.35;;;;;;;15.16;71.28;93207.75;5112491;28;20408;-80
2021/08/24 01:51:51;;;;;;;12.30;8.18;;;;;;;15.14;72.20;93224.53;5113114;28;20047;-81
2021/08/24 01:54:21;;;;;;;12.38;8.07;;;;;;;14.82;74.03;93205.22;5113098;28;20039;-81
2021/08/24 01:56:50;;;;;;;8.90;7.45;;;;;;;14.86;72.57;93205.50;5113308;28;20492;-80
2021/08/24 01:59:21;;;;;;;10.63;7.90;;;;;;;15.10;72.22;93211.28;5112770;28;20044;-80
2021/08/24 02:01:55;;;;;;;11.40;8.18;;;;;;;15.10;71.98;93209.47;5113066;28;20039;-80
2021/08/24 02:04:30;;;;;;;10.45;7.30;;;;;;;15.13;71.48;93195.28;5112924;28;20508;-81
2021/08/24 02:07:02;;;;;;;10.88;7.50;;;;;;;15.28;71.36;93215.41;5112949;28;20044;-80
2021/08/24 02:09:34;;;;;;;11.30;7.88;;;;;;;15.33;71.23;93219.88;5127076;27;20077;-80
2021/08/24 02:12:02;;;;;;;11.25;7.57;;;;;;;15.17;71.20;93198.97;5133413;27;20050;-81
2021/08/24 02:14:30;;;;;;;8.95;7.60;;;;;;;15.35;70.71;93216.03;5133616;27;20392;-81
2021/08/24 02:16:59;;;;;;;11.57;8.13;;;;;;;15.17;70.63;93191.22;5133603;27;20054;-80
2021/08/24 02:19:34;;;;;;;10.25;7.28;;;;;;;15.26;70.80;93214.88;5133601;27;20146;-81
2021/08/24 02:22:08;;;;;;;12.43;7.43;;;;;;;15.17;71.34;93213.69;5133400;27;20051;-81
2021/08/24 02:24:40;;;;;;;10.20;7.60;;;;;;;15.12;71.45;93213.63;5133200;27;20054;-82
2021/08/24 02:27:12;;;;;;;11.63;8.10;;;;;;;15.02;71.87;93212.47;5133303;27;20070;-82
2021/08/24 02:29:39;;;;;;;11.82;7.78;;;;;;;14.79;72.02;93175.44;5133472;27;20417;-82
2021/08/24 02:32:13;;;;;;;11.75;7.72;;;;;;;14.96;71.61;93203.09;5133352;27;20089;-81
2021/08/24 02:34:47;;;;;;;13.48;8.40;;;;;;;15.04;71.90;93199.31;5132868;27;20054;-80
2021/08/24 02:37:20;;;;;;;16.02;8.27;;;;;;;14.84;72.23;93174.72;5133173;27;20047;-80
2021/08/24 02:39:53;;;;;;;10.52;8.40;;;;;;;14.95;72.61;93194.53;5133242;27;20092;-80
2021/08/24 02:42:27;;;;;;;11.18;7.55;;;;;;;15.00;72.20;93204.16;5133203;27;20063;-81
2021/08/24 02:44:59;;;;;;;10.32;8.45;;;;;;;14.97;71.93;93194.28;5132853;27;20411;-81
2021/08/24 02:47:26;;;;;;;10.60;7.40;;;;;;;14.97;71.67;93189.13;5132748;27;20444;-81
2021/08/24 02:49:53;;;;;;;9.77;7.40;;;;;;;15.03;71.18;93195.13;5132897;27;20048;-81
2021/08/24 02:52:22;;;;;;;11.77;7.93;;;;;;;14.94;71.69;93202.50;5132630;27;20053;-81
2021/08/24 02:54:53;;;;;;;8.88;7.20;;;;;;;14.89;71.85;93211.00;5124846;27;20047;-85
2021/08/24 02:57:20;;;;;;;9.68;7.38;;;;;;;14.75;72.28;93200.19;5112323;28;20055;-83
2021/08/24 02:59:46;;;;;;;9.75;7.43;;;;;;;14.62;72.48;93177.22;5112195;28;20047;-83
2021/08/24 03:02:14;;;;;;;9.88;7.50;;;;;;;14.70;72.83;93203.47;5111923;28;20492;-83
2021/08/24 03:04:41;;;;;;;9.80;7.70;;;;;;;14.61;72.56;93178.22;5111732;28;20539;-82
2021/08/24 03:07:14;;;;;;;10.90;7.22;;;;;;;14.61;72.73;93179.00;5112028;28;20116;-82
2021/08/24 03:09:44;;;;;;;10.95;7.25;;;;;;;14.67;72.81;93175.47;5127393;27;20047;-83
2021/08/24 03:12:25;;;;;;;12.55;7.28;;;;;;;14.78;73.01;93196.34;5132372;27;20508;-83
2021/08/24 03:14:58;;;;;;;14.85;7.88;;;;;;;14.73;73.01;93188.47;5132430;27;20043;-83
2021/08/24 03:17:30;;;;;;;10.40;6.78;;;;;;;14.74;73.19;93196.00;5131954;27;20050;-83
2021/08/24 03:20:04;;;;;;;16.40;8.52;;;;;;;14.69;73.43;93188.16;5132412;27;20392;-84
2021/08/24 03:22:32;;;;;;;14.60;7.80;;;;;;;14.12;73.73;93120.88;5132002;27;20050;-84
2021/08/24 03:25:01;;;;;;;9.70;7.97;;;;;;;14.41;73.84;93174.31;5132286;27;20047;-82
2021/08/24 03:27:28;;;;;;;15.32;8.70;;;;;;;14.48;74.07;93181.91;5132249;27;20050;-83
2021/08/24 03:30:01;;;;;;;19.42;7.95;;;;;;;14.56;74.00;93197.81;5131860;27;20036;-82
2021/08/24 03:32:28;;;;;;;17.98;8.13;;;;;;;14.53;74.25;93197.47;5131985;27;20047;-82
2021/08/24 03:34:55;;;;;;;15.43;7.80;;;;;;;14.37;74.08;93171.41;5132152;27;20055;-83
2021/08/24 03:37:22;;;;;;;12.65;7.85;;;;;;;14.43;74.73;93191.13;5131455;27;20062;-82
2021/08/24 03:39:49;;;;;;;12.90;7.47;;;;;;;14.38;75.23;93192.84;5131840;27;20066;-82
2021/08/24 03:42:17;;;;;;;10.80;8.00;;;;;;;14.40;74.73;93198.59;5131949;27;20050;-82
2021/08/24 03:44:46;;;;;;;12.43;7.90;;;;;;;14.33;75.23;93197.94;5131908;27;20070;-82
2021/08/24 03:47:13;;;;;;;12.63;8.23;;;;;;;14.00;75.34;93153.72;5131602;27;20051;-82
2021/08/24 03:49:40;;;;;;;13.43;8.00;;;;;;;14.14;75.55;93175.69;5131773;27;20051;-82
2021/08/24 03:52:08;;;;;;;10.57;8.48;;;;;;;14.09;75.33;93174.78;5131717;27;20050;-82
2021/08/24 03:54:35;;;;;;;16.58;8.02;;;;;;;14.29;75.78;93202.78;5125535;27;20051;-81
2021/08/24 03:57:02;;;;;;;9.80;7.55;;;;;;;14.24;75.55;93202.69;5111058;28;20061;-82
2021/08/24 03:59:30;;;;;;;12.38;8.38;;;;;;;14.13;75.38;93188.81;5110468;28;20039;-82
2021/08/24 04:01:57;;;;;;;11.80;7.57;;;;;;;14.29;75.42;93201.00;5111021;28;20356;-82
2021/08/24 04:04:24;;;;;;;11.82;8.18;;;;;;;14.26;75.74;93200.69;5110604;28;20047;-82
2021/08/24 04:06:51;;;;;;;12.60;7.97;;;;;;;14.19;76.04;93203.41;5111079;28;20438;-82
2021/08/24 04:09:17;;;;;;;11.07;7.68;;;;;;;14.21;76.24;93200.59;5110871;28;20071;-81
2021/08/24 04:11:44;;;;;;;10.07;7.75;;;;;;;14.25;75.38;93207.63;5110317;28;20089;-81
2021/08/24 04:14:11;;;;;;;11.00;8.60;;;;;;;14.22;76.13;93218.44;5110229;28;20058;-82
2021/08/24 04:16:39;;;;;;;17.25;8.80;;;;;;;14.23;75.78;93212.25;5110805;28;20047;-81
2021/08/24 04:19:06;;;;;;;15.30;8.45;;;;;;;14.22;75.99;93212.47;5110688;28;20054;-82
2021/08/24 04:21:33;;;;;;;20.92;8.40;;;;;;;14.18;76.55;93203.63;5110409;28;20062;-82
2021/08/24 04:24:00;;;;;;;15.68;8.88;;;;;;;14.12;76.54;93192.44;5110492;28;20043;-82
2021/08/24 04:26:27;;;;;;;14.25;8.60;;;;;;;14.28;76.00;93219.31;5110211;28;20488;-82
2021/08/24 04:28:54;;;;;;;15.00;9.73;;;;;;;14.16;76.17;93191.72;5110205;28;20055;-82
2021/08/24 04:31:21;;;;;;;16.20;8.38;;;;;;;14.38;75.96;93221.28;5110403;28;20055;-82
2021/08/24 04:33:49;;;;;;;19.10;9.70;;;;;;;14.45;75.53;93226.31;5110384;28;20052;-82
2021/08/24 04:36:17;;;;;;;16.00;10.68;;;;;;;14.52;75.76;93229.50;5110089;28;20048;-83
2021/08/24 04:38:43;;;;;;;24.38;12.52;;;;;;;14.62;74.99;93227.09;5110204;28;20113;-82
2021/08/24 04:41:10;;;;;;;14.55;10.20;;;;;;;14.70;74.75;93223.34;5110389;28;21060;-82
2021/08/24 04:43:38;;;;;;;18.92;9.55;;;;;;;14.53;74.42;93192.31;5110335;28;20051;-83
2021/08/24 04:46:05;;;;;;;16.77;9.18;;;;;;;14.66;74.33;93201.56;5109788;28;20051;-83
2021/08/24 04:48:31;;;;;;;13.93;8.20;;;;;;;14.83;74.13;93217.88;5110083;28;20059;-83
2021/08/24 04:51:00;;;;;;;17.00;8.00;;;;;;;14.92;74.39;93223.47;5110277;28;20058;-83
2021/08/24 04:53:29;;;;;;;20.77;9.68;;;;;;;15.01;74.04;93231.59;5110356;28;20047;-82
2021/08/24 04:55:57;;;;;;;18.27;8.85;;;;;;;14.83;73.89;93180.91;5109807;28;20058;-82
2021/08/24 04:58:24;;;;;;;14.38;8.57;;;;;;;14.96;73.68;93203.09;5109173;28;20055;-81
2021/08/24 05:11:58;;;;;;;12.70;7.70;;;;;;;16.27;69.71;93232.91;5081038;27;1343568;-81
2021/08/24 05:14:25;;;;;;;17.58;8.77;;;;;;;16.13;69.77;93227.31;5107009;28;20062;-81
2021/08/24 05:16:54;;;;;;;14.10;8.43;;;;;;;15.93;70.01;93209.75;5106594;28;20048;-82
2021/08/24 05:19:21;;;;;;;13.32;8.30;;;;;;;16.06;70.42;93234.47;5106884;28;20051;-82
2021/08/24 05:21:48;;;;;;;11.20;8.00;;;;;;;15.99;70.26;93226.13;5106818;28;20079;-83
2021/08/24 05:24:15;;;;;;;14.82;8.85;;;;;;;15.43;70.61;93144.97;5106499;28;20063;-82
2021/08/24 05:26:42;;;;;;;13.82;8.65;;;;;;;16.08;70.55;93231.66;5107530;28;20048;-82
2021/08/24 05:29:12;;;;;;;17.83;9.40;;;;;;;16.22;70.30;93230.25;5107242;28;20048;-83
2021/08/24 05:31:39;;;;;;;14.40;8.32;;;;;;;16.19;68.99;93211.84;5107492;28;20052;-82
2021/08/24 05:34:05;;;;;;;12.27;8.23;;;;;;;16.46;69.05;93239.53;5107241;28;20059;-82
2021/08/24 05:36:32;;;;;;;19.42;9.68;;;;;;;16.42;69.15;93210.72;5107218;28;20127;-82
2021/08/24 05:38:59;;;;;;;18.17;8.98;;;;;;;16.70;68.75;93235.63;5106802;28;20484;-83
2021/08/24 05:41:26;;;;;;;29.98;10.20;;;;;;;16.64;69.01;93204.69;5107062;28;20047;-83
2021/08/24 05:43:53;;;;;;;29.20;10.15;;;;;;;16.96;68.89;93235.03;5107043;28;20056;-83
2021/08/24 05:46:21;;;;;;;14.45;8.93;;;;;;;16.92;69.72;93206.22;5106882;28;20052;-83
2021/08/24 05:48:48;;;;;;;14.43;9.40;;;;;;;17.27;67.38;93222.28;5106639;28;20043;-83
2021/08/24 05:51:19;;;;;;;16.00;9.73;;;;;;;17.38;67.55;93217.13;5105849;28;20059;-83
2021/08/24 05:53:46;;;;;;;22.30;10.23;;;;;;;17.59;66.18;93213.63;5105949;28;20044;-83
2021/08/24 05:56:16;;;;;;;18.05;10.15;;;;;;;17.74;67.58;93228.47;5106141;28;20055;-83
2021/08/24 05:58:43;;;;;;;13.38;9.27;;;;;;;17.47;68.03;93171.50;5106097;28;20048;-83
2021/08/24 06:01:10;;;;;;;17.75;11.25;;;;;;;17.65;69.22;93211.03;5089386;28;20416;-84
2021/08/24 06:03:38;;;;;;;21.02;11.85;;;;;;;17.68;69.45;93220.94;5085395;28;20048;-83
2021/08/24 06:06:05;;;;;;;16.63;10.55;;;;;;;17.92;68.71;93218.69;5058417;28;20087;-83
2021/08/24 06:08:32;;;;;;;19.25;12.13;;;;;;;18.09;67.52;93204.72;5056209;28;20057;-83
2021/08/24 06:10:59;;;;;;;19.00;10.57;;;;;;;18.40;64.43;93220.38;5043008;28;20049;-83
2021/08/24 06:13:25;;;;;;;20.42;10.73;;;;;;;18.77;63.66;93224.56;5032068;28;20053;-84
2021/08/24 06:15:52;;;;;;;21.08;10.13;;;;;;;19.13;61.73;93221.22;5032024;28;20049;-83
2021/08/24 06:18:19;;;;;;;14.13;8.93;;;;;;;19.19;61.39;93214.16;5032571;28;20061;-84
2021/08/24 06:20:48;;;;;;;15.40;9.82;;;;;;;19.30;60.26;93189.66;5031924;28;20092;-84
2021/08/24 06:23:15;;;;;;;16.92;9.25;;;;;;;19.43;60.59;93209.16;5031792;28;20049;-83
2021/08/24 06:25:42;;;;;;;15.32;8.52;;;;;;;19.29;59.46;93187.31;5031699;28;20512;-84
2021/08/24 06:28:09;;;;;;;16.55;9.60;;;;;;;19.59;59.71;93211.72;5031592;28;20053;-83
2021/08/24 06:30:36;;;;;;;13.57;8.48;;;;;;;19.50;58.09;93214.84;5031328;28;20045;-83
2021/08/24 06:33:03;;;;;;;17.05;9.45;;;;;;;19.55;58.77;93176.81;5032071;28;20139;-84
2021/08/24 06:35:30;;;;;;;12.18;7.32;;;;;;;19.42;58.14;93212.03;5031704;28;20058;-85
2021/08/24 06:37:58;;;;;;;12.90;7.43;;;;;;;19.25;58.51;93194.09;5031223;28;20498;-84
2021/08/24 06:40:25;;;;;;;12.68;7.45;;;;;;;19.62;58.30;93213.78;5031229;28;20132;-85
2021/08/24 06:42:53;;;;;;;16.70;8.60;;;;;;;19.52;57.58;93146.09;5031323;28;20053;-84
2021/08/24 06:45:24;;;;;;;13.35;7.32;;;;;;;20.12;56.13;93171.34;5031554;28;20045;-85
2021/08/24 06:47:50;;;;;;;12.30;6.70;;;;;;;20.56;55.56;93172.38;5031984;28;20461;-85
2021/08/24 06:50:18;;;;;;;11.23;6.78;;;;;;;20.87;53.04;93221.75;5031717;28;20075;-85
2021/08/24 06:52:45;;;;;;;13.05;7.20;;;;;;;21.38;52.46;93226.81;5031469;28;20041;-85
2021/08/24 06:55:14;;;;;;;13.65;7.18;;;;;;;21.49;51.93;93183.81;5031148;28;20059;-84
2021/08/24 06:57:42;;;;;;;12.52;6.65;;;;;;;21.38;51.12;93161.47;5031299;28;20060;-86
2021/08/24 07:00:15;;;;;;;14.48;6.82;;;;;;;21.90;50.90;93193.06;5030665;28;20062;-85
2021/08/24 07:02:42;;;;;;;10.45;6.57;;;;;;;22.20;48.97;93217.25;5031212;28;20083;-85
2021/08/24 07:05:10;;;;;;;13.00;7.07;;;;;;;21.91;50.11;93214.75;5031142;28;20057;-85
2021/08/24 07:07:37;;;;;;;8.40;5.82;;;;;;;21.86;48.99;93187.59;5030984;28;20049;-84
2021/08/24 07:10:04;;;;;;;8.73;5.95;;;;;;;21.88;48.78;93198.56;5030667;28;20145;-85
2021/08/24 07:12:33;;;;;;;12.13;7.68;;;;;;;21.92;47.73;93190.13;5030691;28;20046;-83
2021/08/24 07:14:59;;;;;;;8.63;6.00;;;;;;;22.08;47.99;93204.56;5031812;28;20054;-85
2021/08/24 07:17:27;;;;;;;11.93;6.35;;;;;;;21.82;47.93;93157.84;5031560;28;20053;-85
2021/08/24 07:19:54;;;;;;;9.50;5.30;;;;;;;21.79;46.93;93147.19;5030952;28;20504;-85
2021/08/24 07:22:21;;;;;;;6.97;4.93;;;;;;;22.42;45.99;93176.66;5030265;28;20482;-85
2021/08/24 07:24:48;;;;;;;9.15;5.15;;;;;;;23.23;45.52;93208.91;5030044;28;20068;-85
2021/08/24 07:27:15;;;;;;;10.38;5.53;;;;;;;23.20;43.37;93147.38;5030785;28;20107;-88
2021/08/24 07:29:43;;;;;;;9.02;5.90;;;;;;;23.34;43.87;93206.91;5031439;28;20052;-86
2021/08/24 07:32:10;;;;;;;9.75;5.75;;;;;;;23.41;43.86;93154.13;5031229;28;20052;-86
2021/08/24 07:34:37;;;;;;;12.27;5.70;;;;;;;23.69;42.86;93141.75;5031014;28;20063;-85
2021/08/24 07:37:04;;;;;;;9.15;6.38;;;;;;;24.26;41.96;93198.31;5030626;28;20049;-85
2021/08/24 07:39:32;;;;;;;10.18;5.55;;;;;;;24.50;41.35;93197.28;5030518;28;20434;-85
2021/08/24 07:41:59;;;;;;;11.38;5.45;;;;;;;24.51;41.12;93148.94;5030609;28;20057;-86
2021/08/24 07:44:31;;;;;;;10.65;6.05;;;;;;;25.19;41.48;93194.63;5030696;28;20520;-85
2021/08/24 07:46:59;;;;;;;10.10;5.85;;;;;;;25.45;39.22;93189.47;5028917;28;20104;-85
2021/08/24 07:49:27;;;;;;;12.15;6.50;;;;;;;25.41;40.36;93182.50;5028440;28;20053;-87
2021/08/24 07:51:55;;;;;;;13.88;5.97;;;;;;;25.11;39.94;93184.84;5029440;28;20115;-87
2021/08/24 07:54:22;;;;;;;14.20;6.47;;;;;;;24.33;40.23;93132.28;5030665;28;20111;-86
2021/08/24 07:56:49;;;;;;;13.23;7.00;;;;;;;25.07;39.98;93182.03;5030392;28;20064;-86
2021/08/24 07:59:16;;;;;;;16.05;7.05;;;;;;;24.41;41.80;93144.72;5029355;28;20517;-87
2021/08/24 08:01:42;;;;;;;13.32;6.28;;;;;;;25.11;39.94;93182.22;5029853;28;20056;-87
2021/08/24 08:04:11;;;;;;;17.40;7.43;;;;;;;24.81;40.66;93081.00;5029966;28;20054;-86
2021/08/24 08:06:39;;;;;;;19.48;8.27;;;;;;;25.92;39.12;93190.09;5012408;28;20107;-87
2021/08/24 08:09:06;;;;;;;11.48;5.93;;;;;;;25.37;39.09;93145.53;5030148;28;20506;-85
2021/08/24 08:11:36;;;;;;;12.13;6.97;;;;;;;25.56;39.55;93128.75;5029705;28;20049;-87
2021/08/24 08:16:47;;;;;;;13.63;6.03;;;;;;;25.84;38.76;93189.00;5030311;28;20056;-87
2021/08/24 08:19:15;;;;;;;12.80;6.18;;;;;;;25.56;38.96;93124.28;5029942;28;20049;-87
2021/08/24 08:21:43;;;;;;;14.20;7.18;;;;;;;26.35;39.32;93159.66;5029918;28;20045;-88
2021/08/24 08:24:10;;;;;;;12.00;6.00;;;;;;;26.43;38.43;93187.88;5029321;28;20520;-88
2021/08/24 08:26:38;;;;;;;12.48;6.43;;;;;;;26.54;37.48;93188.31;5029355;28;20045;-88
2021/08/24 08:29:09;;;;;;;12.75;6.80;;;;;;;26.50;37.73;93175.00;5029584;28;20391;-89
2021/08/24 08:31:39;;;;;;;22.85;7.45;;;;;;;26.70;38.41;93120.09;5029220;28;20045;-86
2021/08/24 08:34:06;;;;;;;16.42;6.40;;;;;;;27.28;36.71;93172.53;5028845;28;20053;-88
2021/08/24 08:36:35;;;;;;;12.93;6.22;;;;;;;27.55;37.09;93178.47;5029392;28;20569;-86
2021/08/24 08:39:02;;;;;;;11.98;6.40;;;;;;;27.52;36.21;93170.41;5029933;28;20060;-86
2021/08/24 08:41:34;;;;;;;19.27;6.40;;;;;;;27.73;35.67;93152.03;5030127;28;20053;-87
2021/08/24 08:44:04;;;;;;;15.68;6.30;;;;;;;28.27;35.21;93166.44;5040320;28;20057;-89
2021/08/24 08:46:40;;;;;;;13.15;5.63;;;;;;;28.43;34.46;93160.56;5030882;28;20134;-87
2021/08/24 08:49:16;;;;;;;;;;;;;;;28.80;34.47;93169.41;5029453;28;20053;-87
2021/08/24 08:51:55;;;;;;;15.23;6.53;;;;;;;28.66;34.20;93159.13;5028927;28;19921;-86
2021/08/24 08:54:36;;;;;;;12.27;6.53;;;;;;;29.14;33.87;93166.75;5029412;28;20057;-84
2021/08/24 08:57:09;;;;;;;12.35;5.38;;;;;;;28.18;34.49;93142.72;5029168;28;20061;-85
2021/08/24 08:59:44;;;;;;;14.35;6.60;;;;;;;28.03;35.39;93159.16;5029019;28;20049;-85
2021/08/24 09:02:22;;;;;;;13.70;6.03;;;;;;;26.39;36.85;93087.63;5028739;28;20049;-88
2021/08/24 09:04:51;;;;;;;14.57;6.47;;;;;;;26.79;37.74;93134.03;5028863;28;20132;-83
2021/08/24 09:07:28;;;;;;;12.35;6.32;;;;;;;26.88;36.87;93102.38;5028824;28;20050;-85
2021/08/24 09:09:56;;;;;;;15.80;6.88;;;;;;;27.31;37.62;93134.97;5028679;28;20409;-85
2021/08/24 09:12:24;;;;;;;13.55;5.78;;;;;;;27.74;36.42;93157.00;5029041;28;20049;-88
2021/08/24 09:14:54;;;;;;;15.88;6.97;;;;;;;27.61;36.40;93148.22;5028693;28;20521;-87
2021/08/24 09:17:26;;;;;;;10.95;5.95;;;;;;;27.07;37.05;93120.50;5028950;28;20071;-90
2021/08/24 09:19:58;;;;;;;11.65;6.38;;;;;;;27.28;36.18;93042.53;5028862;28;20172;-85
2021/08/24 09:22:27;;;;;;;12.25;5.78;;;;;;;28.59;35.89;93129.81;5028843;28;20128;-83
2021/08/24 09:24:53;;;;;;;8.38;5.30;;;;;;;28.67;34.69;93105.19;5028642;28;20379;-84
2021/08/24 09:27:30;;;;;;;13.38;5.72;;;;;;;28.60;34.07;93024.91;5028917;28;20052;-85
2021/08/24 09:29:58;;;;;;;13.77;5.93;;;;;;;29.48;33.49;93071.41;5028814;28;20067;-85
2021/08/24 09:32:28;;;;;;;11.63;5.90;;;;;;;30.29;31.80;93135.38;5023814;28;20057;-85
2021/08/24 09:35:30;;;;;;;10.80;5.82;;;;;;;30.02;31.39;93108.53;5026927;28;20058;-84
2021/08/24 09:38:01;;;;;;;9.73;5.80;;;;;;;29.27;32.69;93045.88;5025655;28;20045;-87
2021/08/24 09:40:37;;;;;;;12.68;5.38;;;;;;;29.21;33.38;93131.84;5028581;28;20045;-87
2021/08/24 09:43:23;;;;;;;10.43;5.65;;;;;;;29.06;33.35;93083.00;5028791;28;20168;-87
2021/08/24 09:45:59;;;;;;;16.48;6.03;;;;;;;28.78;34.62;93117.97;5028834;28;20136;-86
2021/08/24 09:48:27;;;;;;;6.95;5.57;;;;;;;29.21;33.97;93140.53;5032495;28;20041;-83
2021/08/24 09:50:54;;;;;;;8.43;5.90;;;;;;;29.82;32.39;93124.22;5032428;28;20053;-83
2021/08/24 09:53:40;;;;;;;11.88;6.43;;;;;;;28.45;33.39;93076.50;5032288;28;20072;-86
2021/08/24 09:56:08;;;;;;;7.45;5.13;;;;;;;28.29;33.99;93108.81;5031676;28;20049;-87
2021/08/24 09:58:41;;;;;;;10.48;6.22;;;;;;;27.55;34.49;93043.94;5032080;28;20049;-86
2021/08/24 10:01:11;;;;;;;8.10;5.50;;;;;;;27.87;34.11;93056.78;5031811;28;20052;-86
2021/08/24 10:03:40;;;;;;;10.98;5.63;;;;;;;28.46;33.29;93112.38;5032025;28;20060;-86
2021/08/24 10:06:22;;;;;;;6.95;5.55;;;;;;;28.43;33.93;93115.66;5031855;28;20072;-84
2021/08/24 10:08:55;;;;;;;7.68;5.13;;;;;;;28.84;34.54;93084.94;5031720;28;20052;-85
2021/08/24 10:11:28;;;;;;;12.38;5.35;;;;;;;29.72;33.40;93081.22;5031739;28;20144;-85
2021/08/24 10:14:10;;;;;;;11.02;5.32;;;;;;;30.54;32.12;93096.28;5031638;28;20056;-86
2021/08/24 10:16:46;;;;;;;9.73;5.10;;;;;;;30.53;32.32;93039.09;5031419;28;20057;-84
2021/08/24 10:19:20;;;;;;;11.15;5.20;;;;;;;31.51;31.12;93093.72;5032068;28;20049;-85
2021/08/24 10:21:55;;;;;;;8.98;5.45;;;;;;;31.86;29.55;93093.75;5031325;28;20445;-86
2021/08/24 10:24:28;;;;;;;10.32;5.07;;;;;;;31.07;29.39;92981.31;5031772;28;20437;-89
2021/08/24 10:26:58;;;;;;;7.68;5.80;;;;;;;32.17;28.77;93090.53;5031205;28;20049;-86
2021/08/24 10:29:29;;;;;;;8.95;5.63;;;;;;;32.59;28.53;93068.56;5031846;28;20057;-84
2021/08/24 10:32:02;;;;;;;9.43;5.10;;;;;;;32.28;27.61;93019.75;5031436;28;20064;-85
2021/08/24 10:34:42;;;;;;;9.48;5.03;;;;;;;31.95;28.77;93010.41;5031639;28;20049;-86
2021/08/24 10:37:37;;;;;;;9.15;5.57;;;;;;;32.39;28.37;93073.88;5031422;28;20081;-86
2021/08/24 10:40:29;;;;;;;13.48;5.32;;;;;;;32.01;28.85;92950.56;5031124;28;20049;-84
2021/08/24 10:43:19;;;;;;;7.75;5.18;;;;;;;33.00;28.40;93072.66;5031352;28;20100;-85
2021/08/24 10:46:03;;;;;;;8.20;5.10;;;;;;;32.07;27.88;93015.59;5023719;28;20417;-85
2021/08/24 10:48:34;;;;;;;29.13;8.35;;;;;;;32.64;28.09;93009.75;5031833;28;20052;-83
2021/08/24 10:51:10;;;;;;;8.57;5.30;;;;;;;32.81;28.13;93047.63;5031977;28;20049;-84
2021/08/24 10:53:48;;;;;;;9.32;4.95;;;;;;;31.65;28.45;92989.72;5031483;28;20226;-83
2021/08/24 10:56:29;;;;;;;8.07;5.72;;;;;;;31.73;29.67;93053.25;5031985;28;20088;-83
2021/08/24 10:59:07;;;;;;;8.90;4.93;;;;;;;32.07;28.83;93052.78;5030828;28;20099;-84
2021/08/24 11:01:42;;;;;;;9.02;5.60;;;;;;;32.59;29.16;93038.53;5031225;28;20056;-82
2021/08/24 11:04:21;;;;;;;9.73;5.00;;;;;;;32.25;29.04;93012.47;5031835;28;20053;-83
2021/08/24 11:07:03;;;;;;;6.13;4.90;;;;;;;32.39;27.52;92970.22;5031192;28;20038;-83
2021/08/24 11:09:41;;;;;;;7.88;4.95;;;;;;;32.01;27.62;92979.78;5029868;28;20053;-84
2021/08/24 11:12:22;;;;;;;7.75;4.78;;;;;;;32.59;28.76;93036.66;5029474;28;20049;-83
2021/08/24 11:15:03;;;;;;;10.57;5.45;;;;;;;32.52;26.76;93031.19;5028155;28;20128;-83
2021/08/24 11:17:41;;;;;;;6.78;4.93;;;;;;;31.57;26.73;92981.59;5028982;28;20079;-83
2021/08/24 11:20:22;;;;;;;8.93;5.25;;;;;;;31.71;27.55;93041.44;5028634;28;20346;-82
2021/08/24 11:23:07;;;;;;;7.57;5.40;;;;;;;31.37;28.82;92988.03;5028202;28;20049;-83
2021/08/24 11:25:43;;;;;;;8.65;5.10;;;;;;;32.29;28.04;93039.88;5029725;28;20045;-83
2021/08/24 11:28:25;;;;;;;11.23;6.03;;;;;;;32.25;28.10;93033.72;5029867;28;20409;-84
2021/08/24 11:30:59;;;;;;;11.65;5.97;;;;;;;31.70;28.09;93027.38;5030112;28;20480;-83
2021/08/24 11:33:32;;;;;;;9.40;5.80;;;;;;;32.30;28.68;93038.75;5028907;28;20045;-83
2021/08/24 11:36:03;;;;;;;9.98;5.95;;;;;;;32.62;28.04;93017.31;5029020;28;20072;-83
2021/08/24 11:38:34;;;;;;;10.55;5.60;;;;;;;32.63;27.79;93032.16;5030651;28;20425;-83
2021/08/24 11:41:05;;;;;;;15.38;6.68;;;;;;;33.06;27.15;93044.63;5030210;28;20053;-82
2021/08/24 11:43:40;;;;;;;7.22;5.13;;;;;;;32.89;27.14;93038.66;5029881;28;20042;-82
2021/08/24 11:46:08;;;;;;;;;;;;;;;32.13;26.95;93035.44;5030563;28;20041;-85
2021/08/24 11:48:39;;;;;;;8.13;4.93;;;;;;;31.17;27.12;93033.84;5030272;28;19925;-82
2021/08/24 11:51:13;;;;;;;8.48;5.53;;;;;;;30.98;28.35;92988.66;5030113;28;20099;-83
2021/08/24 11:53:47;;;;;;;6.03;5.20;;;;;;;31.40;27.90;93022.59;5030266;28;20057;-83
2021/08/24 11:56:26;;;;;;;8.35;5.60;;;;;;;31.11;28.11;93027.25;5030086;28;20301;-82